Airfield :
LOGIN :

Register | Disclaimer

   EN    FR    IT 

 










Legend :    VFR   Marginal VFR   IFR   Intensive IFR   Very Intensive IFR
Visi :
Ceiling :
>= 8 km
>= 3000ft
5 to 8 km
1000 to 3000 ft
1500m to 5 km
500 to 1000 ft
800 to 1500m
200 to 500 ft
< 800m
< 200 ft
Symbols :   Thunderstorms  Fog  Heavy snow  Heavy precipitations  Wind > 20 kt
SIGMETs :     Misc.  Thunderstorms  Icing  Turbulence  Mountain Waves  Volcanic Ashes







- Airport Elevation : 13 ft
- IATA code : CEQ
- Download approach charts


LFMD - Cannes Mandelieu

CURRENT METAR :
  • 150030Z AUTO VRB05KT 9999 BKN070 12/07 Q1005

EXPIRED METARs :
  • 150000Z AUTO 24010KT 9999 FEW068 BKN078 12/07 Q1006
  • 142330Z AUTO 25007KT 200V290 9999 FEW074 12/07 Q1006
  • 142300Z AUTO 25007KT 210V300 9999 FEW018 SCT036 BKN062 12/07 Q1007
  • 142230Z AUTO 25009KT 210V280 9999 FEW028 SCT054 BKN064 12/07 Q1007
  • 142200Z AUTO 25008KT 220V280 9999 FEW036 SCT056 BKN070 12/07 Q1007

TAF TAF LFMD
Valid from the 14 at 15:00 until the 15 at 15:00 UTC


141400Z 1415/1515 26015G25KT CAVOK
TEMPO 1500/1506 27010KT BKN030
ATIS : +33 4 93 48 73 23
No reported NOTAMs for that airfield.
3 SIGMETs reported for the Marseille FIR (LFMM) :
 
Severe mountain waves
LFMM SIGMET 22 VALID 142300/150300 LFPW
LFMM MARSEILLE FIR/UIR SEV MTW FCST E OF E00845 SFC/FL270 STNR WKN=
Severe turbulence
LFMM SIGMET 21 VALID 142300/150300 LFPW
LFMM MARSEILLE FIR/UIR SEV TURB FCST WI N4630 E00515 - N4630 E00700 - N4400 E00700 - N4345 E00630 - N4630 E00515 SFC/FL130 STNR NC=
Severe turbulence
LFMM SIGMET 20 VALID 142300/150300 LFPW
LFMM MARSEILLE FIR/UIR SEV TURB FCST N OF N4415 FL170/280 STNR WKN=



MET'MAP, your aeronautical weather chart ! - Copyright ORBIFLY December 2007 - Disclaimer

ORBIFLY MET'MAP TEAM :

Programming & Development : Alexandra Zaïnal
Concept & Development : Baudouin d'Aumeries
Co-Development & Prog : Marc-Olivier Méhu
Technical & hardware support : Manuel Goepfert

Contact : metmap@orbifly.com




SOURCES & CREDITS :

   NOAA